Time;durP1;ratioP1;P1;durP2;ratioP2;P2;SDS_P1;SDS_P2;PMS_P1;PMS_P2;Temp;Humidity;BMP_temperature;BMP_pressure;BME280_temperature;BME280_humidity;BME280_pressure;Samples;Min_cycle;Max_cycle;Signal;HPM_P1;HPM_P2
2024/02/04 00:00:34;;;;;;;8.88;1.17;;;5.30;99.90;;;;;;5072272;28;20254;-63
2024/02/04 00:03:00;;;;;;;2.83;1.00;;;5.20;99.90;;;;;;5072021;28;20199;-63
2024/02/04 00:05:26;;;;;;;0.70;0.70;;;5.30;99.90;;;;;;5072226;28;20917;-63
2024/02/04 00:07:51;;;;;;;3.43;1.60;;;5.30;99.90;;;;;;5071920;28;20178;-63
2024/02/04 00:10:18;;;;;;;1.93;1.10;;;5.30;99.90;;;;;;5072056;28;20175;-63
2024/02/04 00:12:44;;;;;;;0.73;0.73;;;5.30;99.90;;;;;;5072236;28;20710;-63
2024/02/04 00:15:09;;;;;;;1.10;0.73;;;5.30;99.90;;;;;;5072006;28;20249;-63
2024/02/04 00:17:36;;;;;;;1.93;1.27;;;5.20;99.90;;;;;;5071747;28;20401;-63
2024/02/04 00:20:05;;;;;;;2.80;0.90;;;5.20;99.90;;;;;;5071957;28;20177;-63
2024/02/04 00:22:31;;;;;;;2.70;0.82;;;5.10;99.90;;;;;;5071469;28;20208;-63
2024/02/04 00:25:01;;;;;;;10.18;2.13;;;5.00;99.90;;;;;;5071094;28;20170;-63
2024/02/04 00:27:27;;;;;;;1.27;1.15;;;5.10;99.90;;;;;;5070734;28;20177;-63
2024/02/04 00:29:53;;;;;;;21.15;3.75;;;5.10;99.90;;;;;;5071092;28;20177;-61
2024/02/04 00:32:18;;;;;;;6.93;2.17;;;5.20;99.90;;;;;;5071155;28;20582;-63
2024/02/04 00:34:44;;;;;;;19.27;2.40;;;5.30;99.90;;;;;;5071143;28;20169;-63
2024/02/04 00:37:10;;;;;;;23.83;3.73;;;5.40;99.90;;;;;;5070733;28;20616;-63
2024/02/04 00:39:35;;;;;;;2.83;0.60;;;5.40;99.90;;;;;;5070861;28;20180;-63
2024/02/04 00:42:01;;;;;;;1.00;0.70;;;5.40;99.90;;;;;;5070732;28;20201;-63
2024/02/04 00:44:26;;;;;;;16.57;2.70;;;5.30;99.90;;;;;;5070939;28;20176;-63
2024/02/04 00:46:52;;;;;;;40.70;4.13;;;5.20;99.90;;;;;;5070802;28;20695;-63
2024/02/04 00:49:18;;;;;;;44.33;4.43;;;5.10;99.90;;;;;;5070802;28;20208;-63
2024/02/04 00:51:43;;;;;;;39.47;4.60;;;4.90;99.90;;;;;;5070569;28;20201;-63
2024/02/04 00:54:10;;;;;;;41.10;5.00;;;4.80;99.90;;;;;;5070663;28;20189;-63
2024/02/04 00:56:37;;;;;;;26.63;4.95;;;4.80;99.90;;;;;;5070291;28;20605;-63
2024/02/04 00:59:03;;;;;;;58.45;6.18;;;4.80;99.90;;;;;;5070682;28;20172;-63
2024/02/04 01:01:29;;;;;;;79.87;9.90;;;4.90;99.90;;;;;;5070683;28;20174;-63
2024/02/04 01:03:54;;;;;;;32.67;3.43;;;4.90;99.90;;;;;;5070593;28;20644;-63
2024/02/04 01:06:20;;;;;;;17.67;3.00;;;5.10;99.90;;;;;;5070319;28;20250;-63
2024/02/04 01:08:45;;;;;;;26.10;4.00;;;5.20;99.90;;;;;;5070558;28;20174;-63
2024/02/04 01:11:11;;;;;;;26.87;2.70;;;5.30;99.90;;;;;;5070392;28;20273;-63
2024/02/04 01:13:37;;;;;;;8.00;2.50;;;5.40;99.90;;;;;;5070781;28;20189;-63
2024/02/04 01:16:03;;;;;;;1.93;1.40;;;5.50;99.90;;;;;;5073986;28;20220;-63
2024/02/04 01:18:30;;;;;;;5.37;2.20;;;5.50;99.90;;;;;;5074014;28;20172;-63
2024/02/04 01:20:56;;;;;;;4.20;1.63;;;5.60;99.90;;;;;;5074008;28;20436;-63
2024/02/04 01:23:21;;;;;;;1.50;1.33;;;5.60;99.90;;;;;;5035462;28;1132588;-63
2024/02/04 01:25:47;;;;;;;1.73;1.27;;;5.60;99.90;;;;;;5075363;28;20165;-63
2024/02/04 01:28:13;;;;;;;1.60;1.30;;;5.60;99.90;;;;;;5075419;28;20635;-63
2024/02/04 01:30:38;;;;;;;1.40;1.30;;;5.60;99.90;;;;;;5075543;28;20239;-63
2024/02/04 01:33:04;;;;;;;4.60;1.23;;;5.50;99.90;;;;;;5075197;28;21014;-63
2024/02/04 01:35:29;;;;;;;9.70;2.03;;;5.40;99.90;;;;;;5075301;28;20224;-62
2024/02/04 01:37:55;;;;;;;5.30;2.57;;;5.40;99.90;;;;;;5074993;28;20624;-63
2024/02/04 01:40:21;;;;;;;6.53;1.70;;;5.40;99.90;;;;;;5075098;28;20179;-63
2024/02/04 01:42:46;;;;;;;2.30;2.10;;;5.40;99.90;;;;;;5075077;28;20649;-63
2024/02/04 01:45:12;;;;;;;7.60;2.10;;;5.30;99.90;;;;;;5075115;28;20181;-63
2024/02/04 01:47:38;;;;;;;7.03;2.20;;;5.40;99.90;;;;;;5074797;28;20874;-63
2024/02/04 01:50:05;;;;;;;8.20;2.60;;;5.30;99.90;;;;;;5074982;28;20416;-62
2024/02/04 01:52:37;;;;;;;10.02;1.90;;;5.30;99.90;;;;;;5074779;28;20543;-62
2024/02/04 01:55:04;;;;;;;28.40;2.85;;;5.30;99.90;;;;;;5074817;28;20169;-63
2024/02/04 01:57:31;;;;;;;19.73;3.22;;;5.30;99.90;;;;;;5074530;28;20170;-63
2024/02/04 01:59:57;;;;;;;12.60;2.20;;;5.20;99.90;;;;;;5074828;28;20548;-64
2024/02/04 02:02:25;;;;;;;17.33;5.60;;;5.30;99.90;;;;;;5074752;28;20575;-63
2024/02/04 02:04:51;;;;;;;23.60;4.13;;;5.40;99.90;;;;;;5074764;28;20208;-63
2024/02/04 02:07:20;;;;;;;37.40;6.65;;;5.40;99.90;;;;;;5073073;28;20268;-63
2024/02/04 02:09:46;;;;;;;39.22;4.47;;;5.40;99.90;;;;;;5074722;28;20170;-63
2024/02/04 02:12:19;;;;;;;48.90;6.82;;;5.40;99.90;;;;;;5074649;28;20212;-63
2024/02/04 02:14:50;;;;;;;39.20;6.47;;;5.40;99.90;;;;;;5074638;28;20172;-63
2024/02/04 02:17:20;;;;;;;73.18;8.40;;;5.40;99.90;;;;;;5074219;28;20636;-62
2024/02/04 02:19:57;;;;;;;61.97;7.85;;;5.10;99.90;;;;;;5074393;28;20553;-63
2024/02/04 02:22:25;;;;;;;94.88;9.85;;;4.90;99.90;;;;;;5074265;28;20225;-63
2024/02/04 02:24:52;;;;;;;45.75;6.53;;;4.80;99.90;;;;;;5073728;28;20170;-63
2024/02/04 02:27:18;;;;;;;22.58;4.25;;;4.80;99.90;;;;;;5073268;28;20189;-63
2024/02/04 02:29:43;;;;;;;52.23;4.50;;;4.70;99.90;;;;;;5074420;28;20176;-63
2024/02/04 02:32:10;;;;;;;40.80;5.93;;;4.80;99.90;;;;;;5074014;28;20201;-63
2024/02/04 02:34:36;;;;;;;66.65;6.30;;;5.00;99.90;;;;;;5074146;28;20223;-63
2024/02/04 02:37:26;;;;;;;26.23;4.60;;;5.00;99.90;;;;;;5073983;28;20264;-63
2024/02/04 02:40:16;;;;;;;40.95;5.43;;;5.00;99.90;;;;;;5074029;28;20196;-63
2024/02/04 02:42:45;;;;;;;32.88;3.63;;;5.10;99.90;;;;;;5073955;28;20582;-63
2024/02/04 02:45:11;;;;;;;26.23;3.20;;;5.30;99.90;;;;;;5074042;28;20181;-63
2024/02/04 02:47:39;;;;;;;44.22;6.10;;;5.40;99.90;;;;;;5073699;28;20629;-63
2024/02/04 02:50:06;;;;;;;25.85;5.00;;;5.40;99.90;;;;;;5073801;28;20643;-63
2024/02/04 02:52:31;;;;;;;11.32;2.38;;;5.30;99.90;;;;;;5073695;28;20206;-63
2024/02/04 02:54:57;;;;;;;12.10;2.60;;;5.30;99.90;;;;;;5073755;28;20177;-63
2024/02/04 02:57:22;;;;;;;17.40;1.93;;;5.40;99.90;;;;;;5073897;28;20555;-63
2024/02/04 02:59:48;;;;;;;4.47;1.50;;;5.50;99.90;;;;;;5073981;28;20174;-63
2024/02/04 03:02:14;;;;;;;16.00;1.90;;;5.50;99.90;;;;;;5073601;28;20610;-63
2024/02/04 03:04:39;;;;;;;15.77;2.73;;;5.50;99.90;;;;;;5073622;28;20250;-63
2024/02/04 03:07:07;;;;;;;3.70;0.97;;;5.70;99.90;;;;;;5073662;28;20169;-63
2024/02/04 03:09:33;;;;;;;12.55;2.55;;;5.60;99.90;;;;;;5073540;28;20347;-63
2024/02/04 03:11:58;;;;;;;22.43;4.17;;;5.60;99.90;;;;;;5073330;28;20671;-63
2024/02/04 03:14:24;;;;;;;10.43;2.77;;;5.40;99.90;;;;;;5073460;28;20211;-63
2024/02/04 03:16:49;;;;;;;4.83;2.00;;;5.30;99.90;;;;;;5073000;28;20172;-63
2024/02/04 03:19:15;;;;;;;3.33;1.10;;;5.10;99.90;;;;;;5073224;28;20231;-63
2024/02/04 03:21:41;;;;;;;6.87;1.80;;;5.00;99.90;;;;;;5073184;28;20174;-63
2024/02/04 03:24:06;;;;;;;7.43;1.43;;;5.10;99.90;;;;;;5107864;22;20225;-68
2024/02/04 03:26:32;;;;;;;0.70;0.70;;;5.10;99.90;;;;;;5052151;28;20170;-67
2024/02/04 03:28:58;;;;;;;0.97;0.83;;;5.30;99.90;;;;;;5052878;28;20667;-68
2024/02/04 03:31:24;;;;;;;1.67;1.33;;;5.40;99.90;;;;;;5052721;28;20198;-68
2024/02/04 03:33:50;;;;;;;1.67;1.20;;;5.40;99.90;;;;;;5052752;28;20631;-67
2024/02/04 03:36:19;;;;;;;5.43;1.50;;;5.40;99.90;;;;;;5052242;28;20410;-67
2024/02/04 03:38:45;;;;;;;1.42;1.27;;;5.40;99.90;;;;;;5052657;28;20174;-67
2024/02/04 03:41:10;;;;;;;1.13;0.90;;;5.30;99.90;;;;;;5052543;28;20675;-68
2024/02/04 03:43:36;;;;;;;0.60;0.60;;;5.30;99.90;;;;;;5052592;28;20655;-67
2024/02/04 03:46:02;;;;;;;0.85;0.75;;;5.30;99.90;;;;;;5052341;28;20166;-68
2024/02/04 03:48:28;;;;;;;3.90;1.45;;;5.30;99.90;;;;;;5052644;28;20675;-68
2024/02/04 03:50:54;;;;;;;0.73;0.73;;;5.30;99.90;;;;;;5052547;28;20174;-67
2024/02/04 03:53:21;;;;;;;1.90;1.10;;;5.30;99.90;;;;;;5052260;28;20779;-68
2024/02/04 03:55:46;;;;;;;5.43;1.63;;;5.30;99.90;;;;;;5051106;28;20178;-68
2024/02/04 03:58:12;;;;;;;3.07;1.00;;;5.20;99.90;;;;;;5052148;28;20170;-68
2024/02/04 04:00:37;;;;;;;22.13;4.63;;;5.20;99.90;;;;;;5052210;28;20174;-68
2024/02/04 04:03:04;;;;;;;7.40;1.40;;;5.20;99.90;;;;;;5052193;28;20195;-68
2024/02/04 04:05:29;;;;;;;39.13;4.82;;;5.20;99.90;;;;;;5052229;28;20253;-68
2024/02/04 04:07:55;;;;;;;26.67;3.77;;;5.10;99.90;;;;;;5051854;28;20613;-68
2024/02/04 04:10:20;;;;;;;24.23;5.40;;;5.00;99.90;;;;;;5052084;28;20174;-68
2024/02/04 04:12:46;;;;;;;43.43;6.53;;;5.10;99.90;;;;;;5051895;28;20214;-68
2024/02/04 04:15:12;;;;;;;40.50;8.73;;;5.10;99.90;;;;;;5052128;28;20539;-68
2024/02/04 04:17:37;;;;;;;17.97;2.60;;;5.10;99.90;;;;;;5051739;28;20170;-68
2024/02/04 04:20:06;;;;;;;46.70;7.70;;;5.00;99.90;;;;;;5051965;28;20212;-68
2024/02/04 04:22:31;;;;;;;34.50;4.78;;;4.70;99.90;;;;;;5051997;28;20202;-67
2024/02/04 04:24:57;;;;;;;36.13;6.77;;;4.60;99.90;;;;;;5050605;28;20179;-67
2024/02/04 04:27:22;;;;;;;52.03;7.53;;;4.50;99.90;;;;;;5051487;28;20614;-68
2024/02/04 04:29:48;;;;;;;17.87;2.73;;;4.50;99.90;;;;;;5051780;28;20220;-67
2024/02/04 04:32:14;;;;;;;17.10;3.73;;;4.40;99.90;;;;;;5053057;28;20209;-68
2024/02/04 04:34:39;;;;;;;47.87;7.20;;;4.40;99.90;;;;;;5051809;28;20211;-68
2024/02/04 04:37:05;;;;;;;14.63;3.13;;;4.40;99.90;;;;;;5051354;28;20173;-68
2024/02/04 04:39:30;;;;;;;1.70;1.47;;;4.40;99.90;;;;;;5051665;28;20177;-68
2024/02/04 04:41:56;;;;;;;1.20;1.10;;;4.40;99.90;;;;;;5051421;28;20656;-67
2024/02/04 04:44:22;;;;;;;0.77;0.77;;;4.60;99.90;;;;;;5051600;28;20179;-67
2024/02/04 04:46:48;;;;;;;1.00;0.80;;;4.70;99.90;;;;;;5051302;28;20236;-67
2024/02/04 04:49:14;;;;;;;16.60;3.17;;;4.80;99.90;;;;;;5050746;28;20314;-68
2024/02/04 04:51:43;;;;;;;1.57;0.93;;;4.90;99.90;;;;;;5051390;28;20285;-67
2024/02/04 04:54:09;;;;;;;0.82;0.82;;;4.90;99.90;;;;;;5051514;28;20232;-67
2024/02/04 04:56:41;;;;;;;0.70;0.57;;;4.90;99.90;;;;;;5051125;28;20166;-68
2024/02/04 04:59:07;;;;;;;0.50;0.50;;;4.90;99.90;;;;;;5051442;28;20162;-67
2024/02/04 05:01:33;;;;;;;0.70;0.70;;;4.90;99.90;;;;;;5051331;28;20197;-67
2024/02/04 05:04:00;;;;;;;0.50;0.50;;;4.80;99.90;;;;;;5049930;28;20200;-67
2024/02/04 05:06:25;;;;;;;0.73;0.73;;;4.80;99.90;;;;;;5051357;28;20918;-68
2024/02/04 05:08:51;;;;;;;0.97;0.90;;;4.80;99.90;;;;;;5051296;28;20179;-67
2024/02/04 05:11:16;;;;;;;0.50;0.50;;;4.90;99.90;;;;;;5051159;28;20174;-67
2024/02/04 05:13:42;;;;;;;0.53;0.53;;;4.90;99.90;;;;;;5051215;28;20251;-67
2024/02/04 05:16:08;;;;;;;0.60;0.60;;;5.00;99.90;;;;;;5050989;28;20210;-68
2024/02/04 05:18:33;;;;;;;0.60;0.60;;;5.10;99.90;;;;;;5051273;28;20174;-67
2024/02/04 05:21:01;;;;;;;0.63;0.63;;;5.10;99.90;;;;;;5051130;28;20171;-67
2024/02/04 05:23:27;;;;;;;0.95;0.52;;;5.20;99.90;;;;;;5051002;28;20213;-67
2024/02/04 05:25:53;;;;;;;0.50;0.50;;;5.30;99.90;;;;;;5050760;28;20258;-68
2024/02/04 05:28:18;;;;;;;0.50;0.50;;;5.30;99.90;;;;;;5051155;28;20276;-68
2024/02/04 05:30:44;;;;;;;0.63;0.60;;;5.30;99.90;;;;;;5049840;28;20552;-68
2024/02/04 05:33:13;;;;;;;0.60;0.50;;;5.30;99.90;;;;;;5050961;28;20675;-68
2024/02/04 05:35:41;;;;;;;0.50;0.40;;;5.40;99.90;;;;;;5051024;28;20166;-68
2024/02/04 05:38:07;;;;;;;0.60;0.50;;;5.40;99.90;;;;;;5050735;28;20221;-67
2024/02/04 05:40:32;;;;;;;0.53;0.47;;;5.40;99.90;;;;;;5050875;28;20210;-67
2024/02/04 05:42:58;;;;;;;1.47;1.30;;;5.40;99.90;;;;;;5050956;28;20194;-67
2024/02/04 05:45:23;;;;;;;1.00;1.00;;;5.20;99.90;;;;;;5050917;28;20175;-67
2024/02/04 05:47:49;;;;;;;0.57;0.57;;;5.00;99.90;;;;;;5050783;28;20175;-67
2024/02/04 05:50:15;;;;;;;0.90;0.80;;;5.00;99.90;;;;;;5050838;28;20185;-68
2024/02/04 05:52:40;;;;;;;1.27;0.50;;;5.00;99.90;;;;;;5049472;28;20250;-67
2024/02/04 05:55:06;;;;;;;0.80;0.80;;;5.10;99.90;;;;;;5050888;28;20171;-68
2024/02/04 05:57:32;;;;;;;1.13;0.93;;;5.10;99.90;;;;;;5050560;28;20174;-67
2024/02/04 05:59:59;;;;;;;0.70;0.60;;;5.20;99.90;;;;;;5051705;28;20409;-67
2024/02/04 06:02:24;;;;;;;0.50;0.50;;;5.20;99.90;;;;;;5055400;28;20753;-68
2024/02/04 06:04:50;;;;;;;0.80;0.60;;;5.30;99.90;;;;;;5054544;28;20228;-67
2024/02/04 06:07:16;;;;;;;0.50;0.50;;;5.20;99.90;;;;;;5054216;28;20246;-68
2024/02/04 06:09:41;;;;;;;0.80;0.70;;;5.20;99.90;;;;;;5054470;28;20166;-68
2024/02/04 06:12:07;;;;;;;0.40;0.40;;;5.00;99.90;;;;;;5052956;28;20234;-67
2024/02/04 06:14:34;;;;;;;3.50;0.57;;;4.90;99.90;;;;;;5054405;28;20246;-67
2024/02/04 06:17:00;;;;;;;0.68;0.60;;;4.80;99.90;;;;;;5054194;28;20601;-67
2024/02/04 06:19:26;;;;;;;1.37;1.13;;;4.80;99.90;;;;;;5054282;28;20202;-68
2024/02/04 06:21:51;;;;;;;0.60;0.60;;;4.80;99.90;;;;;;5054070;28;20259;-68
2024/02/04 06:24:19;;;;;;;0.63;0.60;;;4.90;99.90;;;;;;5052680;28;20206;-68
2024/02/04 06:26:45;;;;;;;1.00;0.68;;;5.00;99.90;;;;;;5053871;28;20166;-68
2024/02/04 06:29:10;;;;;;;0.50;0.50;;;4.90;99.90;;;;;;5054046;28;20281;-68
2024/02/04 06:31:36;;;;;;;0.70;0.70;;;5.00;99.90;;;;;;5054019;28;20240;-67
2024/02/04 06:34:01;;;;;;;0.73;0.73;;;5.00;99.90;;;;;;5052595;28;20701;-68
2024/02/04 06:36:27;;;;;;;0.40;0.40;;;4.80;99.90;;;;;;5053698;28;20167;-68
2024/02/04 06:38:53;;;;;;;0.50;0.50;;;4.70;99.90;;;;;;5053878;28;20201;-68
2024/02/04 06:41:19;;;;;;;0.50;0.50;;;4.80;99.90;;;;;;5053818;28;20458;-68
2024/02/04 06:43:46;;;;;;;0.40;0.40;;;5.00;99.90;;;;;;5053748;28;20200;-68
2024/02/04 06:46:11;;;;;;;0.40;0.40;;;5.10;99.90;;;;;;5053449;28;20544;-68
2024/02/04 06:48:37;;;;;;;0.50;0.50;;;5.10;99.90;;;;;;5053651;28;20178;-68
2024/02/04 06:51:02;;;;;;;1.03;0.40;;;5.20;99.90;;;;;;5053576;28;20219;-67
2024/02/04 06:53:28;;;;;;;0.77;0.50;;;5.20;99.90;;;;;;5053402;28;20270;-68
2024/02/04 06:55:54;;;;;;;0.47;0.47;;;5.20;99.90;;;;;;5053241;28;20653;-68
2024/02/04 06:58:19;;;;;;;0.40;0.40;;;5.20;99.90;;;;;;5053470;28;20303;-68
2024/02/04 07:00:46;;;;;;;0.50;0.50;;;5.20;99.90;;;;;;5053464;28;20246;-68
2024/02/04 07:03:12;;;;;;;3.80;0.65;;;5.10;99.90;;;;;;5053366;28;20573;-68
2024/02/04 07:05:38;;;;;;;0.67;0.67;;;5.20;99.90;;;;;;5053304;28;20263;-67
2024/02/04 07:08:03;;;;;;;0.70;0.70;;;5.30;99.90;;;;;;5053059;28;20236;-67
2024/02/04 07:10:29;;;;;;;0.40;0.40;;;5.30;99.90;;;;;;5053267;28;20413;-68
2024/02/04 07:12:55;;;;;;;0.50;0.50;;;5.40;99.90;;;;;;5052230;28;20464;-68
2024/02/04 07:15:20;;;;;;;0.67;0.50;;;5.40;99.90;;;;;;5051926;28;20261;-67
2024/02/04 07:17:46;;;;;;;0.60;0.60;;;5.50;99.90;;;;;;5052878;28;20206;-68
2024/02/04 07:20:11;;;;;;;1.13;0.57;;;5.30;99.90;;;;;;5053068;28;20653;-68
2024/02/04 07:22:37;;;;;;;1.03;0.93;;;5.40;99.90;;;;;;5052791;28;20206;-68
2024/02/04 07:25:03;;;;;;;0.80;0.50;;;5.40;99.90;;;;;;5035149;28;20212;-67
2024/02/04 07:27:29;;;;;;;2.65;1.08;;;5.50;99.90;;;;;;5052792;28;20655;-67
2024/02/04 07:29:54;;;;;;;0.63;0.63;;;5.40;99.90;;;;;;5052896;28;20171;-68
2024/02/04 07:32:21;;;;;;;0.73;0.70;;;5.30;99.90;;;;;;5053314;28;20710;-67
2024/02/04 07:34:46;;;;;;;1.70;0.50;;;5.30;99.90;;;;;;5052798;28;20170;-67
2024/02/04 07:37:12;;;;;;;0.77;0.63;;;5.30;99.90;;;;;;5052445;28;20193;-68
2024/02/04 07:39:37;;;;;;;0.90;0.90;;;5.30;99.90;;;;;;5052714;28;20522;-67
2024/02/04 07:42:03;;;;;;;0.60;0.60;;;5.30;99.90;;;;;;5052802;28;20174;-67
2024/02/04 07:44:29;;;;;;;0.57;0.57;;;5.30;99.90;;;;;;5052659;28;20248;-67
2024/02/04 07:46:55;;;;;;;1.27;1.20;;;5.30;99.90;;;;;;5050971;28;20262;-67
2024/02/04 07:49:20;;;;;;;0.70;0.70;;;5.40;99.90;;;;;;5052507;28;20265;-68
2024/02/04 07:51:46;;;;;;;3.20;0.60;;;5.60;99.90;;;;;;5052409;28;20194;-68
2024/02/04 07:54:12;;;;;;;0.50;0.43;;;5.70;99.90;;;;;;5052344;28;20187;-68
2024/02/04 07:56:37;;;;;;;0.60;0.60;;;5.70;99.90;;;;;;5052209;28;20173;-68
2024/02/04 07:59:03;;;;;;;0.53;0.53;;;5.70;99.90;;;;;;5052253;28;20164;-68
2024/02/04 08:01:30;;;;;;;1.73;1.30;;;5.70;99.90;;;;;;5052156;28;20235;-68
2024/02/04 08:03:56;;;;;;;1.40;1.20;;;5.80;99.90;;;;;;5052171;28;20216;-68
2024/02/04 08:06:22;;;;;;;1.15;0.85;;;5.90;99.90;;;;;;5050519;28;20189;-68
2024/02/04 08:08:47;;;;;;;1.30;1.20;;;5.80;99.90;;;;;;5052177;28;20166;-67
2024/02/04 08:11:17;;;;;;;1.27;0.90;;;5.80;99.90;;;;;;5052006;28;20438;-68
2024/02/04 08:13:44;;;;;;;0.50;0.50;;;5.90;99.90;;;;;;5051925;28;20633;-68
2024/02/04 08:16:10;;;;;;;1.30;1.20;;;6.00;99.90;;;;;;5051829;28;20316;-68
2024/02/04 08:18:35;;;;;;;1.30;1.15;;;6.00;99.90;;;;;;5051724;28;20341;-68
2024/02/04 08:21:01;;;;;;;3.07;2.47;;;6.00;99.90;;;;;;5051855;28;20250;-68
2024/02/04 08:23:27;;;;;;;3.07;2.30;;;6.00;99.90;;;;;;5050422;28;20673;-67
2024/02/04 08:25:52;;;;;;;1.47;1.20;;;6.10;99.90;;;;;;5051634;28;20262;-68
2024/02/04 08:28:18;;;;;;;1.10;0.90;;;6.20;99.90;;;;;;5051920;28;20176;-68
2024/02/04 08:30:43;;;;;;;0.80;0.80;;;6.10;99.90;;;;;;5051748;28;20254;-67
2024/02/04 08:33:09;;;;;;;1.00;1.00;;;6.20;99.90;;;;;;5051571;28;20573;-68
2024/02/04 08:35:35;;;;;;;1.03;1.00;;;6.30;99.90;;;;;;5051646;28;20173;-68
2024/02/04 08:38:00;;;;;;;0.50;0.50;;;6.40;99.90;;;;;;5051542;28;20176;-68
2024/02/04 08:40:26;;;;;;;2.00;0.50;;;6.50;99.90;;;;;;5051643;28;20194;-67
2024/02/04 08:42:51;;;;;;;0.57;0.57;;;6.50;99.90;;;;;;5051492;28;20234;-67
2024/02/04 08:45:17;;;;;;;0.60;0.60;;;6.50;99.90;;;;;;5051610;28;20172;-68
2024/02/04 08:47:43;;;;;;;0.43;0.43;;;6.60;99.90;;;;;;5051175;28;20194;-68
2024/02/04 08:50:09;;;;;;;0.40;0.40;;;6.40;99.90;;;;;;5051456;28;20177;-68
2024/02/04 08:52:34;;;;;;;0.70;0.70;;;6.40;99.90;;;;;;5051373;28;20200;-67
2024/02/04 08:55:03;;;;;;;0.40;0.40;;;6.40;99.90;;;;;;5051589;28;20218;-67
2024/02/04 08:57:29;;;;;;;0.40;0.40;;;6.40;99.90;;;;;;5051571;28;20158;-68
2024/02/04 08:59:55;;;;;;;0.40;0.40;;;6.50;99.90;;;;;;5051375;28;20185;-68
2024/02/04 09:02:20;;;;;;;1.17;0.67;;;6.50;99.90;;;;;;5052472;28;20206;-68
2024/02/04 09:04:46;;;;;;;0.50;0.50;;;6.60;99.90;;;;;;5050200;28;20263;-68
2024/02/04 09:07:12;;;;;;;0.50;0.50;;;6.80;99.90;;;;;;5051011;28;20207;-68
2024/02/04 09:09:37;;;;;;;0.40;0.40;;;6.80;99.90;;;;;;5051260;28;20274;-68
2024/02/04 09:12:03;;;;;;;0.40;0.40;;;6.60;99.90;;;;;;5051085;28;20617;-68
2024/02/04 09:14:29;;;;;;;0.50;0.40;;;6.70;99.90;;;;;;5051686;28;20255;-68
2024/02/04 09:16:54;;;;;;;0.30;0.30;;;6.80;99.90;;;;;;5050844;28;20982;-68
2024/02/04 09:19:20;;;;;;;0.60;0.47;;;7.10;99.90;;;;;;5051161;28;20169;-67
2024/02/04 09:21:46;;;;;;;0.67;0.40;;;7.20;99.90;;;;;;5051173;28;20186;-68
2024/02/04 09:24:11;;;;;;;0.97;0.90;;;7.40;99.90;;;;;;5050888;28;20263;-68
2024/02/04 09:26:37;;;;;;;0.70;0.63;;;7.50;99.90;;;;;;5051229;28;20578;-68
2024/02/04 09:29:02;;;;;;;1.07;0.50;;;7.60;99.70;;;;;;5051198;28;20230;-68
2024/02/04 09:31:28;;;;;;;1.80;0.50;;;7.70;99.70;;;;;;5050914;28;20178;-68
2024/02/04 09:33:54;;;;;;;0.40;0.40;;;7.80;99.40;;;;;;5051043;28;20260;-68
2024/02/04 09:36:21;;;;;;;0.40;0.40;;;7.90;99.30;;;;;;5053943;28;20271;-68
2024/02/04 09:38:46;;;;;;;0.60;0.60;;;8.00;99.00;;;;;;5054997;28;20166;-67
2024/02/04 09:41:12;;;;;;;0.70;0.70;;;8.20;99.40;;;;;;5055010;28;20181;-68
2024/02/04 09:43:39;;;;;;;2.00;0.60;;;8.30;98.80;;;;;;5054863;28;20694;-68
2024/02/04 09:46:04;;;;;;;0.50;0.50;;;8.30;98.40;;;;;;5054553;28;20245;-67
2024/02/04 09:48:32;;;;;;;0.50;0.40;;;8.20;97.90;;;;;;5054869;28;20209;-68
2024/02/04 09:50:58;;;;;;;0.65;0.65;;;8.20;98.10;;;;;;5055083;28;20643;-67
2024/02/04 09:53:34;;;;;;;0.70;0.60;;;8.20;98.50;;;;;;5054709;28;20340;-68
2024/02/04 09:56:02;;;;;;;0.40;0.40;;;8.40;98.50;;;;;;5054440;28;20176;-68
2024/02/04 09:58:27;;;;;;;0.45;0.45;;;8.50;97.70;;;;;;5054708;28;20303;-68
2024/02/04 10:00:54;;;;;;;0.70;0.50;;;8.40;97.50;;;;;;5054505;28;20253;-68
2024/02/04 10:03:20;;;;;;;0.63;0.63;;;8.30;97.80;;;;;;5054463;28;20204;-68
2024/02/04 10:05:46;;;;;;;0.50;0.50;;;8.50;98.40;;;;;;5054509;28;20257;-68
2024/02/04 10:08:13;;;;;;;0.40;0.40;;;8.60;98.30;;;;;;5054300;28;20667;-68
2024/02/04 10:10:39;;;;;;;0.40;0.40;;;8.80;97.90;;;;;;5054437;28;20780;-68
2024/02/04 10:13:11;;;;;;;0.50;0.50;;;9.00;97.80;;;;;;5054277;28;20212;-68
2024/02/04 10:15:36;;;;;;;0.40;0.40;;;9.20;97.20;;;;;;5054171;28;20483;-67
2024/02/04 10:18:08;;;;;;;0.40;0.40;;;9.00;96.70;;;;;;5054064;28;20181;-68
2024/02/04 10:20:34;;;;;;;0.47;0.47;;;8.90;96.80;;;;;;5054228;28;20549;-68
2024/02/04 10:23:00;;;;;;;0.40;0.40;;;9.00;97.50;;;;;;5054085;28;20651;-68
2024/02/04 10:25:26;;;;;;;0.67;0.60;;;9.20;97.10;;;;;;5054136;28;20197;-68
2024/02/04 10:27:53;;;;;;;0.40;0.40;;;9.30;97.20;;;;;;5053778;28;20644;-68
2024/02/04 10:30:22;;;;;;;0.60;0.50;;;9.50;96.70;;;;;;5053999;28;20178;-67
2024/02/04 10:32:51;;;;;;;0.40;0.40;;;9.90;96.90;;;;;;5055121;28;20217;-68
2024/02/04 10:35:18;;;;;;;0.40;0.40;;;10.20;95.20;;;;;;5054288;28;20651;-67
2024/02/04 10:37:47;;;;;;;0.47;0.47;;;10.30;94.80;;;;;;5053732;28;20171;-68
2024/02/04 10:40:13;;;;;;;0.60;0.40;;;10.40;93.80;;;;;;5053846;28;20170;-68
2024/02/04 10:42:42;;;;;;;0.40;0.40;;;10.40;94.40;;;;;;5053704;28;20534;-68
2024/02/04 10:45:09;;;;;;;0.40;0.40;;;10.20;94.00;;;;;;5053751;28;20181;-68
2024/02/04 10:47:38;;;;;;;0.60;0.55;;;10.10;94.20;;;;;;5052229;28;20174;-68
2024/02/04 10:50:04;;;;;;;0.40;0.40;;;10.00;93.90;;;;;;5053681;28;20639;-68
2024/02/04 10:52:39;;;;;;;0.40;0.40;;;9.80;95.20;;;;;;5053673;28;20761;-68
2024/02/04 10:55:10;;;;;;;0.40;0.30;;;9.60;95.90;;;;;;5053973;28;20185;-68
2024/02/04 10:57:37;;;;;;;0.60;0.60;;;9.50;95.90;;;;;;5053271;28;20270;-67
2024/02/04 11:00:11;;;;;;;0.40;0.40;;;9.20;95.60;;;;;;5053478;28;20543;-67
2024/02/04 11:02:38;;;;;;;0.63;0.55;;;9.30;96.50;;;;;;5053445;28;20189;-68
2024/02/04 11:05:05;;;;;;;0.40;0.40;;;9.50;96.00;;;;;;5053420;28;20184;-68
2024/02/04 11:07:34;;;;;;;0.40;0.40;;;9.70;96.40;;;;;;5053024;28;20221;-68
2024/02/04 11:10:01;;;;;;;0.40;0.40;;;9.80;94.90;;;;;;5053359;28;20178;-67
2024/02/04 11:12:29;;;;;;;0.40;0.40;;;9.50;94.20;;;;;;5053160;28;20205;-68
2024/02/04 11:14:59;;;;;;;0.50;0.50;;;9.20;95.20;;;;;;5053282;28;20705;-68
2024/02/04 11:17:43;;;;;;;0.73;0.50;;;9.30;95.70;;;;;;5052935;28;20232;-68
2024/02/04 11:20:28;;;;;;;0.73;0.60;;;9.80;95.40;;;;;;5053068;28;20189;-68
2024/02/04 11:23:28;;;;;;;0.60;0.60;;;10.30;94.80;;;;;;5052844;28;20210;-68
2024/02/04 11:25:56;;;;;;;0.40;0.40;;;10.40;93.80;;;;;;5049678;28;20608;-68
2024/02/04 11:28:23;;;;;;;0.50;0.50;;;10.40;93.00;;;;;;5053392;28;20174;-67
2024/02/04 11:30:52;;;;;;;0.50;0.50;;;10.40;93.10;;;;;;5051640;28;20186;-68
2024/02/04 11:33:19;;;;;;;4.45;0.52;;;10.40;93.70;;;;;;5052811;28;20206;-68
2024/02/04 11:35:45;;;;;;;0.40;0.40;;;10.40;94.00;;;;;;5052884;28;20229;-67
2024/02/04 11:38:13;;;;;;;0.40;0.40;;;10.40;93.30;;;;;;5052642;28;20237;-68
2024/02/04 11:40:39;;;;;;;0.43;0.43;;;10.30;93.50;;;;;;5052721;28;20176;-68
2024/02/04 11:43:06;;;;;;;0.52;0.50;;;10.40;93.80;;;;;;5052585;28;20197;-68
2024/02/04 11:45:31;;;;;;;0.68;0.57;;;10.20;93.90;;;;;;5052713;28;20179;-68
2024/02/04 11:48:01;;;;;;;0.50;0.40;;;10.10;94.50;;;;;;5052520;28;20252;-68
2024/02/04 11:50:33;;;;;;;0.65;0.60;;;10.30;94.70;;;;;;5052694;28;20551;-68
2024/02/04 11:53:09;;;;;;;0.50;0.50;;;10.50;94.90;;;;;;5052424;28;20777;-68
2024/02/04 11:55:38;;;;;;;0.83;0.60;;;10.60;94.00;;;;;;5052425;28;20410;-68
2024/02/04 11:58:06;;;;;;;0.40;0.40;;;10.70;94.20;;;;;;5051876;28;20409;-68
2024/02/04 12:00:36;;;;;;;0.40;0.40;;;10.80;93.30;;;;;;5052381;28;20405;-68
2024/02/04 12:03:06;;;;;;;0.40;0.40;;;10.80;93.30;;;;;;5053520;28;20432;-68
2024/02/04 12:05:36;;;;;;;0.63;0.40;;;10.90;93.20;;;;;;5052857;28;20413;-67
2024/02/04 12:08:06;;;;;;;0.40;0.40;;;10.90;93.10;;;;;;5052067;28;20488;-68
2024/02/04 12:10:34;;;;;;;0.50;0.50;;;10.80;92.50;;;;;;5052622;28;20393;-67
2024/02/04 12:13:04;;;;;;;0.70;0.60;;;10.70;92.70;;;;;;5051961;28;20224;-68
2024/02/04 12:15:32;;;;;;;0.40;0.40;;;10.60;92.50;;;;;;5052133;28;20203;-68
2024/02/04 12:18:11;;;;;;;0.55;0.55;;;10.60;93.30;;;;;;5051859;28;20655;-68
2024/02/04 12:20:38;;;;;;;2.05;0.63;;;10.70;93.70;;;;;;5052022;28;20265;-68
2024/02/04 12:23:04;;;;;;;0.30;0.30;;;10.70;93.40;;;;;;5051776;28;20266;-68
2024/02/04 12:25:31;;;;;;;0.40;0.40;;;10.80;93.20;;;;;;5051915;28;20189;-68
2024/02/04 12:28:02;;;;;;;0.40;0.40;;;10.60;93.30;;;;;;5051499;28;20189;-67
2024/02/04 12:30:28;;;;;;;0.70;0.52;;;10.50;93.10;;;;;;5051860;28;20541;-68
2024/02/04 12:33:05;;;;;;;0.40;0.40;;;10.30;93.30;;;;;;5051508;28;20255;-68
2024/02/04 12:35:31;;;;;;;0.50;0.50;;;10.30;93.70;;;;;;5051806;28;20659;-68
2024/02/04 12:37:58;;;;;;;0.45;0.45;;;10.40;93.80;;;;;;5051466;28;20190;-68
2024/02/04 12:40:26;;;;;;;0.80;0.50;;;10.40;93.70;;;;;;5051697;28;20642;-68
2024/02/04 12:42:55;;;;;;;0.45;0.45;;;10.60;94.10;;;;;;5051666;28;20952;-67
2024/02/04 12:45:25;;;;;;;0.50;0.50;;;10.50;93.80;;;;;;5051494;28;20267;-68
2024/02/04 12:47:57;;;;;;;0.50;0.50;;;10.70;94.10;;;;;;5051432;28;20174;-68
2024/02/04 12:50:24;;;;;;;0.73;0.50;;;10.70;93.50;;;;;;5051635;28;20948;-68